Time;durP1;ratioP1;P1;durP2;ratioP2;P2;SDS_P1;SDS_P2;PMS_P1;PMS_P2;Temp;Humidity;BMP_temperature;BMP_pressure;BME280_temperature;BME280_humidity;BME280_pressure;Samples;Min_cycle;Max_cycle;Signal;HPM_P1;HPM_P2
2024/01/06 00:00:24;;;;;;;;;;;;;;;8.30;95.40;100547.78;7299611;19;19993;-67
2024/01/06 00:02:51;;;;;;;;;;;;;;;8.30;95.36;100554.81;7295772;19;19915;-66
2024/01/06 00:05:21;;;;;;;;;;;;;;;8.31;95.11;100557.31;7292763;19;19915;-67
2024/01/06 00:07:47;;;;;;;;;;;;;;;8.33;94.75;100557.97;7299022;19;19921;-66
2024/01/06 00:10:14;;;;;;;;;;;;;;;8.30;94.71;100557.44;7285038;19;19959;-66
2024/01/06 00:12:43;;;;;;;;;;;;;;;8.35;94.91;100561.28;7304566;19;20284;-66
2024/01/06 00:15:13;;;;;;;;;;;;;;;8.35;94.81;100561.28;7291277;19;20559;-66
2024/01/06 00:17:40;;;;;;;;;;;;;;;8.38;95.08;100562.81;7292449;19;20414;-67
2024/01/06 00:20:07;;;;;;;;;;;;;;;8.37;95.08;100571.63;7290167;19;20654;-66
2024/01/06 00:22:35;;;;;;;;;;;;;;;8.39;95.42;100560.03;7288554;19;19921;-66
2024/01/06 00:25:02;;;;;;;;;;;;;;;8.41;95.14;100568.56;7297377;19;19922;-67
2024/01/06 00:27:29;;;;;;;;;;;;;;;8.37;94.69;100575.09;7297344;19;19911;-66
2024/01/06 00:29:56;;;;;;;;;;;;;;;8.32;94.73;100576.47;7293959;19;19915;-67
2024/01/06 00:32:24;;;;;;;;;;;;;;;8.34;95.17;100577.97;7287006;19;19919;-66
2024/01/06 00:34:53;;;;;;;;;;;;;;;8.34;95.39;100571.91;7288882;19;20178;-65
2024/01/06 00:37:20;;;;;;;;;;;;;;;8.32;95.12;100571.25;7283780;19;19990;-65
2024/01/06 00:39:48;;;;;;;;;;;;;;;8.33;94.93;100580.75;7295697;19;19918;-66
2024/01/06 00:42:15;;;;;;;;;;;;;;;8.32;94.88;100576.47;7310658;19;19918;-66
2024/01/06 00:44:42;;;;;;;;;;;;;;;8.33;94.62;100576.31;7285324;19;20359;-66
2024/01/06 00:47:08;;;;;;;;;;;;;;;8.31;94.76;100585.31;7299986;19;19930;-66
2024/01/06 00:49:35;;;;;;;;;;;;;;;8.29;94.87;100582.78;7295214;19;19923;-66
2024/01/06 00:52:02;;;;;;;;;;;;;;;8.31;95.00;100587.94;7296463;19;19915;-66
2024/01/06 00:54:29;;;;;;;;;;;;;;;8.33;95.05;100578.94;7294488;19;20014;-70
2024/01/06 00:56:56;;;;;;;;;;;;;;;8.37;95.33;100580.31;7303634;19;20376;-67
2024/01/06 00:59:24;;;;;;;;;;;;;;;8.39;95.00;100582.78;7295909;19;19933;-66
2024/01/06 01:01:50;;;;;;;;;;;;;;;8.39;95.02;100577.53;7299760;19;20725;-67
2024/01/06 01:04:17;;;;;;;;;;;;;;;8.39;94.87;100581.00;7291688;19;19922;-66
2024/01/06 01:06:44;;;;;;;;;;;;;;;8.38;95.00;100573.28;7294714;19;19923;-66
2024/01/06 01:09:13;;;;;;;;;;;;;;;8.39;95.09;100585.41;7278051;19;20462;-67
2024/01/06 01:11:44;;;;;;;;;;;;;;;8.38;95.09;100575.91;7293590;19;20251;-67
2024/01/06 01:14:10;;;;;;;;;;;;;;;8.37;95.19;100587.38;7301020;19;19962;-66
2024/01/06 01:16:37;;;;;;;;;;;;;;;8.37;95.12;100585.56;7286930;19;19936;-66
2024/01/06 01:19:04;;;;;;;;;;;;;;;8.38;94.96;100589.03;7288987;19;20285;-67
2024/01/06 01:21:32;;;;;;;;;;;;;;;8.39;94.71;100598.50;7287478;19;19994;-67
2024/01/06 01:23:59;;;;;;;;;;;;;;;8.37;94.56;100593.44;7288669;19;19932;-66
2024/01/06 01:26:26;;;;;;;;;;;;;;;8.41;94.84;100602.66;7294682;19;20494;-66
2024/01/06 01:28:53;;;;;;;;;;;;;;;8.39;95.03;100601.97;7295815;19;20364;-66
2024/01/06 01:31:19;;;;;;;;;;;;;;;8.37;94.93;100611.78;7289315;19;20505;-67
2024/01/06 01:33:46;;;;;;;;;;;;;;;8.38;95.02;100608.16;7298114;19;20327;-66
2024/01/06 01:36:14;;;;;;;;;;;;;;;8.39;95.39;100612.44;7297655;19;22443;-67
2024/01/06 01:38:41;;;;;;;;;;;;;;;8.40;95.35;100613.28;7291317;19;20011;-67
2024/01/06 01:41:08;;;;;;;;;;;;;;;8.42;95.48;100616.59;7282591;19;20019;-67
2024/01/06 01:43:35;;;;;;;;;;;;;;;8.42;95.44;100613.97;7294715;19;20317;-66
2024/01/06 01:46:02;;;;;;;;;;;;;;;8.40;95.62;100621.13;7289480;19;20005;-66
2024/01/06 01:48:29;;;;;;;;;;;;;;;8.43;95.71;100632.16;7295425;19;19919;-67
2024/01/06 01:50:56;;;;;;;;;;;;;;;8.41;95.35;100626.25;7298394;19;20669;-66
2024/01/06 01:53:24;;;;;;;;;;;;;;;8.36;95.27;100631.09;7292750;19;19925;-68
2024/01/06 01:55:51;;;;;;;;;;;;;;;8.33;94.96;100626.13;7294874;19;20848;-66
2024/01/06 01:58:18;;;;;;;;;;;;;;;8.33;94.67;100627.94;7304660;19;19919;-68
2024/01/06 02:00:44;;;;;;;;;;;;;;;8.31;94.83;100629.88;7290350;19;20251;-65
2024/01/06 02:03:12;;;;;;;;;;;;;;;8.30;94.61;100633.44;7299388;19;20198;-67
2024/01/06 02:05:40;;;;;;;;;;;;;;;8.31;95.09;100642.97;7296215;19;19927;-67
2024/01/06 02:08:07;;;;;;;;;;;;;;;8.30;94.80;100642.16;7304940;19;19911;-65
2024/01/06 02:10:34;;;;;;;;;;;;;;;8.31;95.24;100645.59;7299419;19;22053;-66
2024/01/06 02:13:10;;;;;;;;;;;;;;;8.31;95.73;100648.22;7285719;19;19926;-65
2024/01/06 02:15:38;;;;;;;;;;;;;;;8.31;95.65;100646.44;7296756;19;19915;-67
2024/01/06 02:18:05;;;;;;;;;;;;;;;8.31;95.53;100654.28;7301341;19;19958;-66
2024/01/06 02:20:32;;;;;;;;;;;;;;;8.31;95.51;100656.09;7294766;19;20598;-67
2024/01/06 02:23:00;;;;;;;;;;;;;;;8.32;95.52;100657.75;7301776;19;19911;-67
2024/01/06 02:25:27;;;;;;;;;;;;;;;8.30;95.30;100663.13;7291906;19;19957;-67
2024/01/06 02:27:54;;;;;;;;;;;;;;;8.32;94.96;100666.44;7296558;19;20409;-66
2024/01/06 02:30:21;;;;;;;;;;;;;;;8.35;95.75;100667.94;7294080;19;19911;-65
2024/01/06 02:32:48;;;;;;;;;;;;;;;8.34;95.31;100666.28;7291844;19;20252;-67
2024/01/06 02:35:15;;;;;;;;;;;;;;;8.32;94.98;100674.28;7287501;19;19919;-67
2024/01/06 02:37:42;;;;;;;;;;;;;;;8.33;95.17;100675.91;7291494;19;19919;-65
2024/01/06 02:40:09;;;;;;;;;;;;;;;8.33;94.44;100672.50;7309879;19;19933;-66
2024/01/06 02:42:36;;;;;;;;;;;;;;;8.31;94.91;100675.25;7290670;19;21848;-67
2024/01/06 02:45:03;;;;;;;;;;;;;;;8.29;95.01;100677.16;7295136;19;19915;-67
2024/01/06 02:47:30;;;;;;;;;;;;;;;8.27;94.77;100683.50;7289615;19;19919;-67
2024/01/06 02:49:57;;;;;;;;;;;;;;;8.24;94.68;100675.91;7297184;19;19937;-65
2024/01/06 02:52:24;;;;;;;;;;;;;;;8.26;94.69;100681.84;7291003;19;21245;-67
2024/01/06 02:54:51;;;;;;;;;;;;;;;8.29;94.88;100684.19;7300252;19;20618;-67
2024/01/06 02:57:18;;;;;;;;;;;;;;;8.30;94.83;100693.72;7299901;19;19919;-66
2024/01/06 02:59:45;;;;;;;;;;;;;;;8.29;94.50;100692.88;7295746;19;19915;-66
2024/01/06 03:02:12;;;;;;;;;;;;;;;8.27;95.10;100694.00;7287940;19;20545;-67
2024/01/06 03:04:39;;;;;;;;;;;;;;;8.28;95.26;100700.91;7284962;19;20236;-67
2024/01/06 03:07:05;;;;;;;;;;;;;;;8.30;95.51;100701.59;7294072;19;20579;-66
2024/01/06 03:09:32;;;;;;;;;;;;;;;8.30;95.09;100701.59;7298242;19;22344;-66
2024/01/06 03:11:59;;;;;;;;;;;;;;;8.29;95.47;100707.78;7306879;19;19929;-66
2024/01/06 03:14:26;;;;;;;;;;;;;;;8.28;96.06;100709.56;7307723;19;19917;-66
2024/01/06 03:16:53;;;;;;;;;;;;;;;8.24;95.91;100713.44;7311546;19;19951;-65
2024/01/06 03:19:20;;;;;;;;;;;;;;;8.26;96.57;100711.50;7298250;19;19922;-66
2024/01/06 03:21:50;;;;;;;;;;;;;;;8.27;97.27;100721.03;7285865;19;19919;-66
2024/01/06 03:24:17;;;;;;;;;;;;;;;8.28;97.18;100724.50;7296740;19;20645;-66
2024/01/06 03:26:44;;;;;;;;;;;;;;;8.26;97.35;100718.56;7299754;19;20811;-66
2024/01/06 03:29:11;;;;;;;;;;;;;;;8.24;97.33;100726.53;7288993;19;21135;-66
2024/01/06 03:31:41;;;;;;;;;;;;;;;8.22;97.16;100723.25;7295364;19;19986;-67
2024/01/06 03:34:10;;;;;;;;;;;;;;;8.19;97.34;100723.50;7296145;19;20024;-66
2024/01/06 03:36:37;;;;;;;;;;;;;;;8.21;97.86;100726.00;7280640;19;19930;-66
2024/01/06 03:39:04;;;;;;;;;;;;;;;8.23;97.81;100731.94;7286345;19;19919;-67
2024/01/06 03:41:32;;;;;;;;;;;;;;;8.23;97.68;100731.94;7288950;19;20014;-65
2024/01/06 03:44:05;;;;;;;;;;;;;;;8.17;96.83;100733.31;7283022;19;19922;-67
2024/01/06 03:46:33;;;;;;;;;;;;;;;8.15;95.99;100722.97;7297932;19;19923;-66
2024/01/06 03:48:59;;;;;;;;;;;;;;;8.13;95.92;100735.38;7277843;19;19923;-67
2024/01/06 03:51:26;;;;;;;;;;;;;;;8.10;96.27;100725.19;7296020;19;19930;-66
2024/01/06 03:53:53;;;;;;;;;;;;;;;8.06;96.11;100736.91;7300895;19;19928;-67
2024/01/06 03:56:20;;;;;;;;;;;;;;;8.05;96.35;100737.88;7294190;19;20715;-68
2024/01/06 03:58:48;;;;;;;;;;;;;;;8.04;96.29;100743.25;7279863;19;19948;-66
2024/01/06 04:01:15;;;;;;;;;;;;;;;8.01;95.77;100747.00;7282498;19;20272;-66
2024/01/06 04:03:42;;;;;;;;;;;;;;;7.99;95.60;100743.66;7291363;19;19954;-66
2024/01/06 04:06:09;;;;;;;;;;;;;;;7.92;93.77;100744.38;7291790;19;19919;-66
2024/01/06 04:08:36;;;;;;;;;;;;;;;7.92;94.48;100749.63;7298154;19;19982;-65
2024/01/06 04:11:03;;;;;;;;;;;;;;;7.91;94.00;100759.25;7292185;19;20569;-66
2024/01/06 04:13:30;;;;;;;;;;;;;;;7.92;93.90;100749.63;7295480;19;21312;-66
2024/01/06 04:15:56;;;;;;;;;;;;;;;7.93;93.66;100759.94;7298441;19;19975;-66
2024/01/06 04:18:23;;;;;;;;;;;;;;;7.93;93.30;100770.41;7307595;19;21709;-65
2024/01/06 04:20:50;;;;;;;;;;;;;;;7.92;93.21;100770.56;7302729;19;19919;-66
2024/01/06 04:23:17;;;;;;;;;;;;;;;7.93;93.23;100774.81;7301867;19;20370;-66
2024/01/06 04:25:45;;;;;;;;;;;;;;;7.95;93.84;100783.38;7286341;19;19923;-66
2024/01/06 04:28:12;;;;;;;;;;;;;;;7.96;93.47;100783.25;7283883;19;20010;-66
2024/01/06 04:30:39;;;;;;;;;;;;;;;7.94;92.39;100776.47;7295051;19;20102;-66
2024/01/06 04:33:07;;;;;;;;;;;;;;;7.97;91.94;100782.28;7296943;19;19926;-67
2024/01/06 04:35:34;;;;;;;;;;;;;;;8.01;92.12;100778.44;7290992;19;19919;-67
2024/01/06 04:38:01;;;;;;;;;;;;;;;8.04;91.73;100783.38;7284442;19;20361;-66
2024/01/06 04:40:27;;;;;;;;;;;;;;;8.05;91.16;100782.41;7306601;19;21531;-66
2024/01/06 04:42:54;;;;;;;;;;;;;;;8.04;90.29;100783.38;7306546;19;19923;-66
2024/01/06 04:45:23;;;;;;;;;;;;;;;8.04;90.40;100786.00;7305887;19;20597;-68
2024/01/06 04:47:50;;;;;;;;;;;;;;;8.01;90.34;100794.16;7281714;19;20898;-66
2024/01/06 04:50:18;;;;;;;;;;;;;;;8.01;90.01;100793.31;7276593;19;19922;-65
2024/01/06 04:52:44;;;;;;;;;;;;;;;8.01;89.68;100803.78;7286674;19;19919;-65
2024/01/06 04:55:12;;;;;;;;;;;;;;;7.98;89.75;100807.50;7298592;19;21479;-68
2024/01/06 04:57:39;;;;;;;;;;;;;;;7.96;89.97;100806.81;7283691;19;20342;-66
2024/01/06 05:00:06;;;;;;;;;;;;;;;7.95;90.12;100806.94;7274225;19;19918;-66
2024/01/06 05:02:33;;;;;;;;;;;;;;;7.98;89.87;100798.81;7293528;19;19923;-65
2024/01/06 05:05:00;;;;;;;;;;;;;;;7.95;89.40;100802.53;7291084;19;19948;-66
2024/01/06 05:07:27;;;;;;;;;;;;;;;7.91;89.39;100802.97;7302963;19;20392;-66
2024/01/06 05:09:54;;;;;;;;;;;;;;;7.93;90.11;100801.84;7286932;19;20183;-66
2024/01/06 05:12:21;;;;;;;;;;;;;;;7.94;90.15;100807.91;7273626;19;19925;-66
2024/01/06 05:14:48;;;;;;;;;;;;;;;7.95;89.92;100806.94;7298015;19;20223;-65
2024/01/06 05:17:14;;;;;;;;;;;;;;;7.99;89.75;100817.03;7285519;19;19918;-66
2024/01/06 05:19:41;;;;;;;;;;;;;;;7.99;89.81;100826.66;7296842;19;19937;-66
2024/01/06 05:22:13;;;;;;;;;;;;;;;7.99;89.04;100822.25;7316686;19;19961;-67
2024/01/06 05:24:45;;;;;;;;;;;;;;;8.00;89.86;100826.53;7313852;19;20121;-66
2024/01/06 05:27:11;;;;;;;;;;;;;;;7.99;90.06;100824.88;7308133;19;20183;-67
2024/01/06 05:29:39;;;;;;;;;;;;;;;8.01;90.00;100820.34;7297531;19;19915;-65
2024/01/06 05:32:07;;;;;;;;;;;;;;;8.01;90.17;100824.75;7292162;19;19942;-66
2024/01/06 05:34:34;;;;;;;;;;;;;;;7.99;88.54;100835.34;7298369;19;19931;-67
2024/01/06 05:37:01;;;;;;;;;;;;;;;8.00;88.62;100838.81;7304146;19;19917;-66
2024/01/06 05:39:28;;;;;;;;;;;;;;;7.98;89.02;100838.09;7299756;19;20739;-67
2024/01/06 05:41:55;;;;;;;;;;;;;;;7.95;88.59;100851.50;7313198;19;19941;-67
2024/01/06 05:44:22;;;;;;;;;;;;;;;7.98;89.02;100854.66;7296713;19;22209;-66
2024/01/06 05:46:50;;;;;;;;;;;;;;;7.99;88.99;100847.63;7292492;19;19919;-65
2024/01/06 05:49:18;;;;;;;;;;;;;;;7.96;87.49;100863.63;7286896;19;20374;-68
2024/01/06 05:51:45;;;;;;;;;;;;;;;7.90;87.80;100867.59;7289956;19;19927;-68
2024/01/06 05:54:13;;;;;;;;;;;;;;;7.91;88.59;100871.91;7286897;19;20518;-66
2024/01/06 05:56:40;;;;;;;;;;;;;;;7.91;88.58;100881.53;7293414;19;19926;-66
2024/01/06 05:59:07;;;;;;;;;;;;;;;7.92;89.08;100881.41;7294914;19;19918;-66
2024/01/06 06:01:35;;;;;;;;;;;;;;;7.90;89.12;100885.13;7293579;19;19931;-66
2024/01/06 06:04:04;;;;;;;;;;;;;;;7.89;89.19;100884.28;7296917;19;20525;-65
2024/01/06 06:06:31;;;;;;;;;;;;;;;7.87;89.60;100883.59;7287809;19;19914;-65
2024/01/06 06:08:58;;;;;;;;;;;;;;;7.85;90.16;100885.53;7288358;19;20254;-67
2024/01/06 06:11:24;;;;;;;;;;;;;;;7.88;90.26;100898.34;7296389;19;19919;-66
2024/01/06 06:13:52;;;;;;;;;;;;;;;7.90;89.64;100893.81;7294243;19;20186;-67
2024/01/06 06:16:18;;;;;;;;;;;;;;;7.92;90.07;100906.78;7296915;19;19922;-65
2024/01/06 06:18:46;;;;;;;;;;;;;;;7.91;89.75;100903.31;7304136;19;20502;-66
2024/01/06 06:21:13;;;;;;;;;;;;;;;7.93;89.97;100900.56;7293154;19;19947;-65
2024/01/06 06:23:40;;;;;;;;;;;;;;;7.95;89.77;100912.56;7306850;19;20690;-66
2024/01/06 06:26:07;;;;;;;;;;;;;;;7.96;89.60;100906.38;7298063;19;19926;-64
2024/01/06 06:28:35;;;;;;;;;;;;;;;7.96;88.85;100908.16;7296198;19;19937;-66
2024/01/06 06:31:02;;;;;;;;;;;;;;;7.95;88.52;100912.56;7294805;19;19927;-65
2024/01/06 06:33:33;;;;;;;;;;;;;;;7.96;88.68;100911.63;7299200;19;19947;-67
2024/01/06 06:36:01;;;;;;;;;;;;;;;7.95;88.62;100915.19;7300833;19;19911;-65
2024/01/06 06:38:28;;;;;;;;;;;;;;;7.94;88.98;100918.75;7292442;19;20952;-66
2024/01/06 06:40:56;;;;;;;;;;;;;;;7.90;88.74;100922.63;7300012;19;20262;-65
2024/01/06 06:43:23;;;;;;;;;;;;;;;7.89;89.17;100934.06;7291289;19;21828;-67
2024/01/06 06:45:49;;;;;;;;;;;;;;;7.89;88.95;100930.59;7301361;19;19918;-65
2024/01/06 06:48:17;;;;;;;;;;;;;;;7.87;89.18;100940.41;7293528;19;19929;-67
2024/01/06 06:50:44;;;;;;;;;;;;;;;7.88;89.24;100942.88;7295694;19;21189;-66
2024/01/06 06:53:10;;;;;;;;;;;;;;;7.88;89.39;100944.66;7290171;19;19915;-64
2024/01/06 06:55:37;;;;;;;;;;;;;;;7.89;89.52;100941.91;7294424;19;19929;-67
2024/01/06 06:58:05;;;;;;;;;;;;;;;7.87;89.22;100954.34;7288701;19;19955;-65
2024/01/06 07:00:32;;;;;;;;;;;;;;;7.88;89.54;100953.34;7289580;19;19929;-65
2024/01/06 07:02:59;;;;;;;;;;;;;;;7.89;89.76;100962.03;7301164;19;19929;-65
2024/01/06 07:05:26;;;;;;;;;;;;;;;7.87;89.84;100967.44;7303704;19;20147;-66
2024/01/06 07:07:54;;;;;;;;;;;;;;;7.90;90.26;100964.53;7293424;19;19926;-65
2024/01/06 07:10:21;;;;;;;;;;;;;;;7.89;90.39;100978.59;7304846;19;19994;-65
2024/01/06 07:12:47;;;;;;;;;;;;;;;7.89;90.31;100981.19;7302239;19;19921;-65
2024/01/06 07:15:14;;;;;;;;;;;;;;;7.92;90.48;100980.13;7300312;19;19926;-65
2024/01/06 07:17:41;;;;;;;;;;;;;;;7.94;90.21;100994.75;7289427;19;19935;-66
2024/01/06 07:20:10;;;;;;;;;;;;;;;7.93;89.30;100984.38;7282009;19;19915;-66
2024/01/06 07:22:40;;;;;;;;;;;;;;;7.93;88.96;100989.63;7304288;19;20386;-66
2024/01/06 07:25:10;;;;;;;;;;;;;;;7.92;89.05;100996.69;7286408;19;19919;-65
2024/01/06 07:27:37;;;;;;;;;;;;;;;7.92;89.06;101003.69;7284754;19;20315;-66
2024/01/06 07:30:06;;;;;;;;;;;;;;;7.92;89.44;101012.41;7291984;19;19922;-68
2024/01/06 07:32:39;;;;;;;;;;;;;;;7.92;89.56;101014.19;7291611;19;20027;-65
2024/01/06 07:35:06;;;;;;;;;;;;;;;7.93;89.27;101021.06;7295464;19;20303;-65
2024/01/06 07:37:33;;;;;;;;;;;;;;;7.92;89.19;101022.03;7296783;19;19929;-66
2024/01/06 07:40:01;;;;;;;;;;;;;;;7.89;89.06;101030.97;7311491;19;20472;-67
2024/01/06 07:42:31;;;;;;;;;;;;;;;7.89;89.47;101036.22;7288469;19;20340;-64
2024/01/06 07:44:59;;;;;;;;;;;;;;;7.88;89.54;101026.69;7299828;19;19922;-65
2024/01/06 07:47:25;;;;;;;;;;;;;;;7.84;88.99;101035.78;7295944;19;19926;-66
2024/01/06 07:49:53;;;;;;;;;;;;;;;7.80;89.27;101033.53;7299130;19;20464;-64
2024/01/06 07:52:21;;;;;;;;;;;;;;;7.81;88.84;101041.28;7290792;19;20285;-65
2024/01/06 07:54:49;;;;;;;;;;;;;;;7.81;88.93;101033.44;7284281;19;20291;-65
2024/01/06 07:57:16;;;;;;;;;;;;;;;7.83;88.85;101041.13;7294413;19;19919;-66
2024/01/06 07:59:44;;;;;;;;;;;;;;;7.82;88.51;101050.81;7291316;19;21404;-66
2024/01/06 08:02:15;;;;;;;;;;;;;;;7.81;88.23;101049.13;7304697;19;19929;-66
2024/01/06 08:04:45;;;;;;;;;;;;;;;7.83;87.77;101049.81;7302457;19;19926;-66
2024/01/06 08:07:13;;;;;;;;;;;;;;;7.88;87.15;101059.91;7293235;19;19947;-67
2024/01/06 08:09:41;;;;;;;;;;;;;;;7.84;87.24;101059.34;7303256;19;19919;-66
2024/01/06 08:12:09;;;;;;;;;;;;;;;7.83;87.21;101068.16;7303969;19;20904;-66
2024/01/06 08:14:36;;;;;;;;;;;;;;;7.83;87.64;101069.94;7295120;19;19918;-67
2024/01/06 08:17:03;;;;;;;;;;;;;;;7.83;87.75;101068.16;7282986;19;20592;-66
2024/01/06 08:19:32;;;;;;;;;;;;;;;7.84;87.20;101074.22;7284007;19;20018;-67
2024/01/06 08:21:59;;;;;;;;;;;;;;;7.83;86.97;101080.41;7282689;19;19922;-65
2024/01/06 08:24:26;;;;;;;;;;;;;;;7.85;87.52;101089.81;7290019;19;19915;-65
2024/01/06 08:26:53;;;;;;;;;;;;;;;7.83;86.57;101089.09;7299136;19;20159;-65
2024/01/06 08:29:20;;;;;;;;;;;;;;;7.81;86.17;101093.66;7292049;19;19994;-64
2024/01/06 08:31:50;;;;;;;;;;;;;;;7.85;86.61;101100.31;7288586;19;20489;-65
2024/01/06 08:34:17;;;;;;;;;;;;;;;7.87;87.36;101106.25;7290920;19;19938;-65
2024/01/06 08:36:44;;;;;;;;;;;;;;;7.86;87.04;101111.63;7288217;19;19925;-66
2024/01/06 08:39:12;;;;;;;;;;;;;;;7.85;87.14;101117.81;7296343;19;19999;-66
2024/01/06 08:41:39;;;;;;;;;;;;;;;7.87;87.86;101121.97;7287032;19;20364;-65
2024/01/06 08:44:06;;;;;;;;;;;;;;;7.87;87.50;101124.59;7280242;19;19919;-66
2024/01/06 08:46:33;;;;;;;;;;;;;;;7.89;87.11;101125.28;7291653;19;19945;-65
2024/01/06 08:49:00;;;;;;;;;;;;;;;7.91;87.62;101118.13;7282451;19;19951;-67
2024/01/06 08:51:27;;;;;;;;;;;;;;;7.95;87.21;101130.00;7289015;19;19977;-65
2024/01/06 08:53:54;;;;;;;;;;;;;;;7.92;86.38;101130.28;7285904;19;19911;-66
2024/01/06 08:56:21;;;;;;;;;;;;;;;7.90;86.47;101131.34;7283958;19;20364;-66
2024/01/06 08:58:48;;;;;;;;;;;;;;;7.90;87.05;101132.19;7288712;19;20308;-67
2024/01/06 09:01:15;;;;;;;;;;;;;;;7.93;87.68;101144.19;7292474;19;19914;-68
2024/01/06 09:03:42;;;;;;;;;;;;;;;7.93;87.49;101141.56;7289262;19;19926;-64
2024/01/06 09:06:10;;;;;;;;;;;;;;;7.97;86.91;101146.44;7309757;19;20913;-65
2024/01/06 09:08:37;;;;;;;;;;;;;;;7.98;87.17;101160.34;7300509;19;19926;-65
2024/01/06 09:11:08;;;;;;;;;;;;;;;7.99;87.28;101159.38;7299598;19;19926;-65
2024/01/06 09:13:36;;;;;;;;;;;;;;;7.99;86.70;101162.00;7278761;19;19930;-65
2024/01/06 09:16:04;;;;;;;;;;;;;;;8.01;87.08;101163.56;7303438;19;19918;-65
2024/01/06 09:18:31;;;;;;;;;;;;;;;8.06;86.98;101177.09;7278430;19;19911;-65
2024/01/06 09:21:00;;;;;;;;;;;;;;;8.10;86.79;101173.28;7283428;19;19930;-65
2024/01/06 09:23:33;;;;;;;;;;;;;;;8.10;86.53;101186.38;7276925;19;19937;-66
2024/01/06 09:26:00;;;;;;;;;;;;;;;8.09;86.35;101189.94;7291279;19;19918;-65
2024/01/06 09:28:27;;;;;;;;;;;;;;;8.06;86.00;101192.84;7287707;19;20186;-65
2024/01/06 09:30:58;;;;;;;;;;;;;;;8.08;85.95;101192.69;7287953;19;19919;-67
2024/01/06 09:33:35;;;;;;;;;;;;;;;8.09;85.92;101191.72;7279214;19;19923;-67
2024/01/06 09:36:04;;;;;;;;;;;;;;;8.10;86.33;101199.47;7290742;19;20014;-67
2024/01/06 09:38:31;;;;;;;;;;;;;;;8.13;86.55;101201.00;7289119;19;19929;-66
2024/01/06 09:40:59;;;;;;;;;;;;;;;8.14;86.55;101207.91;7291261;19;20426;-68
2024/01/06 09:43:27;;;;;;;;;;;;;;;8.15;86.26;101212.19;7295901;19;19919;-68
2024/01/06 09:45:57;;;;;;;;;;;;;;;8.15;86.46;101212.19;7296607;19;19998;-67
2024/01/06 09:48:28;;;;;;;;;;;;;;;8.17;86.01;101212.91;7292591;19;20330;-67
2024/01/06 09:51:02;;;;;;;;;;;;;;;8.15;86.08;101226.13;7288146;19;19972;-66
2024/01/06 09:53:33;;;;;;;;;;;;;;;8.18;85.76;101223.25;7275640;19;19927;-68
2024/01/06 09:56:01;;;;;;;;;;;;;;;8.19;85.36;101226.69;7286835;19;19919;-67
2024/01/06 09:58:32;;;;;;;;;;;;;;;8.14;85.12;101227.09;7294153;19;19927;-68
2024/01/06 10:01:01;;;;;;;;;;;;;;;8.13;85.97;101228.03;7298717;19;20217;-68
2024/01/06 10:03:31;;;;;;;;;;;;;;;8.13;85.76;101238.50;7286971;19;20660;-68
2024/01/06 10:06:02;;;;;;;;;;;;;;;8.13;84.99;101237.69;7306143;19;20019;-67
2024/01/06 10:08:34;;;;;;;;;;;;;;;8.16;85.45;101259.25;7304179;19;20029;-66
2024/01/06 10:11:03;;;;;;;;;;;;;;;8.23;85.96;101256.13;7321837;19;19926;-68
2024/01/06 10:13:30;;;;;;;;;;;;;;;8.26;86.23;101256.69;7306019;19;19915;-68
2024/01/06 10:15:58;;;;;;;;;;;;;;;8.27;85.60;101249.66;7295328;19;19930;-67
2024/01/06 10:18:29;;;;;;;;;;;;;;;8.25;85.97;101259.44;7298049;19;20185;-67
2024/01/06 10:20:58;;;;;;;;;;;;;;;8.28;86.12;101262.63;7299436;19;19922;-70
2024/01/06 10:23:27;;;;;;;;;;;;;;;8.31;86.09;101265.03;7289541;19;20264;-68
2024/01/06 10:25:55;;;;;;;;;;;;;;;8.35;86.70;101262.97;7312088;19;21009;-68
2024/01/06 10:28:28;;;;;;;;;;;;;;;8.40;87.70;101272.13;7303652;19;20014;-68
2024/01/06 10:30:59;;;;;;;;;;;;;;;8.41;87.05;101272.97;7284363;19;19926;-67
2024/01/06 10:33:28;;;;;;;;;;;;;;;8.42;86.82;101264.16;7299719;19;20469;-68
2024/01/06 10:36:00;;;;;;;;;;;;;;;8.44;86.46;101264.84;7303061;19;19923;-67
2024/01/06 10:38:29;;;;;;;;;;;;;;;8.41;86.45;101271.19;7307434;19;19963;-68
2024/01/06 10:41:00;;;;;;;;;;;;;;;8.37;86.61;101272.41;7301514;19;19990;-67
2024/01/06 10:43:34;;;;;;;;;;;;;;;8.44;86.81;101267.44;7302935;19;20228;-67
2024/01/06 10:46:04;;;;;;;;;;;;;;;8.44;86.17;101277.94;7295045;19;19918;-69
2024/01/06 10:48:35;;;;;;;;;;;;;;;8.47;85.52;101268.06;7294208;19;19994;-68
2024/01/06 10:51:07;;;;;;;;;;;;;;;8.46;85.19;101282.13;7313147;19;21746;-68
2024/01/06 10:53:39;;;;;;;;;;;;;;;8.48;84.90;101288.03;7298853;19;19919;-69
2024/01/06 10:56:07;;;;;;;;;;;;;;;8.44;83.35;101286.66;7299554;19;19923;-67
2024/01/06 10:58:42;;;;;;;;;;;;;;;8.43;83.84;101290.22;7280177;19;20141;-67
2024/01/06 11:01:09;;;;;;;;;;;;;;;8.42;83.81;101285.97;7303540;19;20217;-68
2024/01/06 11:03:39;;;;;;;;;;;;;;;8.45;84.30;101290.09;7304244;19;20269;-66
2024/01/06 11:06:12;;;;;;;;;;;;;;;8.41;83.87;101291.31;7293839;19;19923;-67
2024/01/06 11:09:02;;;;;;;;;;;;;;;8.46;85.06;101289.16;7289337;19;20456;-67
2024/01/06 11:11:30;;;;;;;;;;;;;;;8.46;84.64;101283.91;7298794;19;19934;-68
2024/01/06 11:14:17;;;;;;;;;;;;;;;8.45;83.93;101288.31;7306012;19;20585;-67
2024/01/06 11:16:45;;;;;;;;;;;;;;;8.46;84.85;101284.72;7304854;19;20945;-67
2024/01/06 11:19:33;;;;;;;;;;;;;;;8.45;83.22;101282.22;7294194;19;20019;-67
2024/01/06 11:22:22;;;;;;;;;;;;;;;8.41;83.44;101284.28;7294541;19;20251;-67
2024/01/06 11:24:52;;;;;;;;;;;;;;;8.33;84.14;101291.13;7298926;19;20490;-67
2024/01/06 11:27:24;;;;;;;;;;;;;;;8.37;84.98;101292.53;7296817;19;20229;-66
2024/01/06 11:29:54;;;;;;;;;;;;;;;8.39;85.62;101295.84;7306465;19;20634;-69
2024/01/06 11:32:25;;;;;;;;;;;;;;;8.42;86.30;101296.44;7286248;19;19915;-68
2024/01/06 11:34:57;;;;;;;;;;;;;;;8.44;85.03;101294.50;7288236;19;19952;-68
2024/01/06 11:37:36;;;;;;;;;;;;;;;8.47;84.89;101299.50;7293009;19;20002;-69
2024/01/06 11:40:13;;;;;;;;;;;;;;;8.52;85.02;101312.25;7304934;19;19922;-66
2024/01/06 11:42:44;;;;;;;;;;;;;;;8.55;84.49;101304.09;7297271;19;19929;-67
2024/01/06 11:45:15;;;;;;;;;;;;;;;8.46;84.29;101313.56;7295089;19;19923;-66
2024/01/06 11:47:48;;;;;;;;;;;;;;;8.44;85.66;101302.38;7306563;19;20014;-67
2024/01/06 11:50:25;;;;;;;;;;;;;;;8.47;86.84;101311.78;7298360;19;19919;-66
2024/01/06 11:52:59;;;;;;;;;;;;;;;8.39;84.80;101306.34;7295823;19;19957;-66
2024/01/06 11:55:28;;;;;;;;;;;;;;;8.39;85.58;101301.91;7293712;19;20213;-66
2024/01/06 11:58:02;;;;;;;;;;;;;;;8.44;85.98;101307.63;7299591;19;19923;-66
2024/01/06 12:00:31;;;;;;;;;;;;;;;8.44;84.96;101298.91;7300723;19;19926;-68
2024/01/06 12:03:00;;;;;;;;;;;;;;;8.43;85.39;101300.69;7304741;19;19932;-67
2024/01/06 12:05:29;;;;;;;;;;;;;;;8.46;85.99;101295.22;7297204;19;20616;-68
2024/01/06 12:07:58;;;;;;;;;;;;;;;8.41;84.95;101293.94;7293037;19;19979;-67
2024/01/06 12:10:27;;;;;;;;;;;;;;;8.41;84.78;101291.31;7300658;19;19915;-68
2024/01/06 12:12:58;;;;;;;;;;;;;;;8.44;85.34;101291.88;7291211;19;20408;-68
2024/01/06 12:15:26;;;;;;;;;;;;;;;8.47;86.39;101290.81;7304943;19;19922;-67
2024/01/06 12:17:54;;;;;;;;;;;;;;;8.45;85.26;101292.72;7290796;19;20464;-66
2024/01/06 12:20:28;;;;;;;;;;;;;;;8.51;84.55;101297.47;7302727;19;19941;-67
2024/01/06 12:23:00;;;;;;;;;;;;;;;8.54;85.44;101297.19;7294364;19;20417;-67
2024/01/06 12:25:33;;;;;;;;;;;;;;;8.52;85.00;101297.34;7299115;19;20378;-67
2024/01/06 12:28:05;;;;;;;;;;;;;;;8.50;85.00;101294.00;7294942;19;19921;-66
2024/01/06 12:30:34;;;;;;;;;;;;;;;8.44;85.41;101294.50;7301612;19;20753;-68
2024/01/06 12:33:03;;;;;;;;;;;;;;;8.44;85.38;101293.69;7294340;19;20525;-68
2024/01/06 12:35:32;;;;;;;;;;;;;;;8.45;85.76;101290.09;7296154;19;20188;-68
2024/01/06 12:38:01;;;;;;;;;;;;;;;8.46;86.07;101286.53;7278149;19;19951;-67
2024/01/06 12:40:29;;;;;;;;;;;;;;;8.50;86.33;101290.53;7277392;19;20457;-67
2024/01/06 12:42:59;;;;;;;;;;;;;;;8.46;86.19;101292.59;7302830;19;19915;-67
2024/01/06 12:45:32;;;;;;;;;;;;;;;8.50;86.20;101295.78;7287050;19;19926;-67
2024/01/06 12:48:00;;;;;;;;;;;;;;;8.54;86.98;101289.31;7288213;19;19930;-69
2024/01/06 12:50:36;;;;;;;;;;;;;;;8.58;85.67;101296.81;7299720;19;20011;-67
2024/01/06 12:53:08;;;;;;;;;;;;;;;8.59;85.43;101292.41;7287793;19;21565;-67